Terminal Aerodrome Forecast
Issued by NWS

Home | Current Version | Previous Version | Text Only | Print | Product List | Glossary On
Versions: 1 2 3 4 5 6 7 8 9 10 11 12 13 14 15 16 17 18 19 20 21 22 23
000
FTUS43 KIWX 231700
TAFSBN
TAF
KSBN 231739Z 2318/2418 11006KT P6SM BKN009
      TEMPO 2318/2319 SCT009 BKN018
     FM231900 10007KT P6SM BKN035
     FM240900 09006KT 5SM BR SCT015
      TEMPO 2409/2413 3SM BR BKN015
     FM241300 11008KT P6SM SCT040=

USA.gov is the U.S. government's official web portal to all federal, state and local government web resources and services.